Time;durP1;ratioP1;P1;durP2;ratioP2;P2;SDS_P1;SDS_P2;PMS_P1;PMS_P2;Temp;Humidity;BMP_temperature;BMP_pressure;BME280_temperature;BME280_humidity;BME280_pressure;Samples;Min_cycle;Max_cycle;Signal;HPM_P1;HPM_P2
2022/04/19 00:04:09;;;;;;;29.20;18.30;;;;;9.10;100924.00;;;;10510664;28;20523;-76
2022/04/19 00:09:11;;;;;;;28.87;19.50;;;;;9.00;100925.00;;;;10519423;28;20688;-76
2022/04/19 00:14:13;;;;;;;31.43;20.00;;;;;9.00;100917.00;;;;10501880;28;20217;-75
2022/04/19 00:19:15;;;;;;;29.37;19.73;;;;;8.90;100919.00;;;;10510327;28;20628;-76
2022/04/19 00:24:17;;;;;;;32.40;20.73;;;;;8.80;100922.00;;;;10506603;28;20191;-76
2022/04/19 00:29:19;;;;;;;31.83;19.10;;;;;8.70;100920.00;;;;10543632;28;20196;-76
2022/04/19 00:34:21;;;;;;;35.10;21.83;;;;;8.50;100915.00;;;;10526552;28;20240;-76
2022/04/19 00:39:23;;;;;;;35.00;21.83;;;;;8.50;100912.00;;;;10503066;27;20209;-76
2022/04/19 00:44:25;;;;;;;35.23;23.37;;;;;8.40;100901.00;;;;10568969;27;20246;-76
2022/04/19 00:49:28;;;;;;;32.73;21.37;;;;;8.40;100897.00;;;;10497822;28;20215;-76
2022/04/19 00:54:30;;;;;;;39.77;22.27;;;;;8.30;100895.00;;;;10551288;27;20225;-76
2022/04/19 00:59:34;;;;;;;36.33;23.03;;;;;8.20;100897.00;;;;10569017;27;20293;-76
2022/04/19 01:04:35;;;;;;;36.17;23.50;;;;;8.20;100894.00;;;;10562984;28;20196;-76
2022/04/19 01:09:39;;;;;;;40.17;25.77;;;;;8.10;100881.00;;;;10501002;28;20201;-76
2022/04/19 01:14:41;;;;;;;41.50;24.67;;;;;8.10;100891.00;;;;10488689;28;20222;-76
2022/04/19 01:19:45;;;;;;;40.20;25.37;;;;;8.00;100889.00;;;;10542728;28;20220;-76
2022/04/19 01:24:52;;;;;;;44.60;26.67;;;;;7.90;100887.00;;;;10500638;28;20193;-76
2022/04/19 01:30:00;;;;;;;46.50;28.37;;;;;7.90;100885.00;;;;10467295;28;20193;-76
2022/04/19 01:35:20;;;;;;;46.67;28.67;;;;;7.80;100878.00;;;;10499925;28;20217;-76
2022/04/19 01:40:31;;;;;;;52.23;29.40;;;;;7.70;100873.00;;;;10503514;28;20575;-77
2022/04/19 01:45:34;;;;;;;46.63;27.80;;;;;7.70;100866.00;;;;10485771;28;20200;-77
2022/04/19 01:50:41;;;;;;;48.50;28.13;;;;;7.60;100859.00;;;;10488684;28;20219;-75
2022/04/19 01:55:44;;;;;;;44.30;28.77;;;;;7.50;100865.00;;;;10508454;28;20279;-75
2022/04/19 02:01:15;;;;;;;50.53;31.03;;;;;7.50;100860.00;;;;10490024;28;20200;-78
2022/04/19 02:06:20;;;;;;;48.53;29.53;;;;;7.50;100854.00;;;;10543099;28;20670;-76
2022/04/19 02:11:24;;;;;;;54.57;31.70;;;;;7.40;100857.00;;;;10515096;28;20528;-78
2022/04/19 02:16:52;;;;;;;48.17;31.47;;;;;7.40;100864.00;;;;10487148;28;20713;-77
2022/04/19 02:21:55;;;;;;;52.93;32.07;;;;;7.30;100847.00;;;;10513374;28;20188;-77
2022/04/19 02:26:57;;;;;;;56.03;33.33;;;;;7.30;100847.00;;;;10506514;28;20203;-78
2022/04/19 02:31:59;;;;;;;53.97;31.43;;;;;7.30;100848.00;;;;10507690;28;20205;-75
2022/04/19 02:37:02;;;;;;;54.13;33.87;;;;;7.20;100851.00;;;;10506401;28;20203;-78
2022/04/19 02:42:06;;;;;;;58.00;32.70;;;;;7.10;100851.00;;;;10517509;28;20215;-78
2022/04/19 02:47:09;;;;;;;57.40;34.23;;;;;7.00;100860.00;;;;10534921;28;20196;-78
2022/04/19 02:52:17;;;;;;;59.17;32.83;;;;;7.00;100856.00;;;;10547759;27;20302;-77
2022/04/19 02:57:19;;;;;;;55.40;32.20;;;;;6.90;100851.00;;;;10575758;27;20187;-78
2022/04/19 03:02:21;;;;;;;55.57;33.13;;;;;6.80;100862.00;;;;10515433;28;20184;-78
2022/04/19 03:07:23;;;;;;;59.20;36.17;;;;;6.70;100848.00;;;;10491556;28;20193;-78
2022/04/19 03:12:27;;;;;;;58.23;36.47;;;;;6.80;100845.00;;;;10531379;28;20216;-78
2022/04/19 03:17:40;;;;;;;60.87;37.63;;;;;6.80;100854.00;;;;10548764;28;20192;-77
2022/04/19 03:28:12;;;;;;;64.23;37.17;;;;;6.70;100849.00;;;;10531775;28;20230;-77
2022/04/19 03:33:18;;;;;;;61.07;38.20;;;;;6.60;100846.00;;;;10564966;28;20245;-77
2022/04/19 03:38:20;;;;;;;63.07;37.97;;;;;6.50;100844.00;;;;10529682;28;20207;-77
2022/04/19 03:43:23;;;;;;;59.67;38.00;;;;;6.40;100849.00;;;;10548119;28;20659;-77
2022/04/19 03:48:25;;;;;;;65.30;39.77;;;;;6.40;100846.00;;;;10547380;28;20196;-77
2022/04/19 03:53:27;;;;;;;65.57;40.63;;;;;6.30;100844.00;;;;10572394;27;20276;-77
2022/04/19 03:58:29;;;;;;;64.90;39.27;;;;;6.20;100843.00;;;;10572377;27;20546;-77
2022/04/19 04:03:31;;;;;;;56.83;36.93;;;;;6.10;100836.00;;;;10576147;27;20271;-77
2022/04/19 04:08:34;;;;;;;61.90;37.13;;;;;6.00;100845.00;;;;10525706;28;20536;-77
2022/04/19 04:13:35;;;;;;;61.10;39.57;;;;;5.90;100831.00;;;;10504589;28;20213;-77
2022/04/19 04:18:39;;;;;;;61.73;37.73;;;;;5.90;100838.00;;;;10504312;28;20201;-77
2022/04/19 04:23:42;;;;;;;73.93;40.17;;;;;5.90;100843.00;;;;10558460;27;20672;-77
2022/04/19 04:28:50;;;;;;;69.63;39.90;;;;;5.80;100848.00;;;;10505492;28;20193;-78
2022/04/19 04:33:52;;;;;;;66.70;38.27;;;;;5.80;100844.00;;;;10485628;28;20217;-75
2022/04/19 04:38:54;;;;;;;58.10;39.20;;;;;5.80;100846.00;;;;10500767;28;20212;-77
2022/04/19 04:44:06;;;;;;;60.70;38.33;;;;;5.70;100848.00;;;;10530494;28;20188;-77
2022/04/19 04:54:31;;;;;;;65.07;39.23;;;;;5.80;100852.00;;;;10520299;28;20216;-77
2022/04/19 04:59:34;;;;;;;72.37;41.63;;;;;5.80;100844.00;;;;10490245;28;20715;-77
2022/04/19 05:04:38;;;;;;;68.43;42.73;;;;;6.00;100843.00;;;;10545047;28;20225;-77
2022/04/19 05:09:41;;;;;;;72.03;44.23;;;;;6.20;100849.00;;;;10516622;28;20268;-77
2022/04/19 05:14:43;;;;;;;71.27;43.67;;;;;6.40;100846.00;;;;10487351;28;20223;-78
2022/04/19 05:19:45;;;;;;;69.93;43.00;;;;;6.60;100850.00;;;;10486577;28;20224;-78
2022/04/19 05:24:47;;;;;;;77.20;45.87;;;;;7.00;100850.00;;;;10558206;28;20206;-78
2022/04/19 05:29:49;;;;;;;73.00;43.00;;;;;7.50;100851.00;;;;10587457;28;20191;-78
2022/04/19 05:34:51;;;;;;;64.63;41.03;;;;;8.10;100849.00;;;;10588015;28;20211;-77
2022/04/19 05:39:54;;;;;;;54.67;37.80;;;;;8.60;100859.00;;;;10519118;28;20627;-77
2022/04/19 05:44:56;;;;;;;58.30;38.30;;;;;8.90;100856.00;;;;10528621;28;20729;-77
2022/04/19 05:49:59;;;;;;;57.00;40.37;;;;;9.40;100860.00;;;;10528284;28;20204;-78
2022/04/19 05:55:01;;;;;;;58.47;39.90;;;;;9.90;100866.00;;;;10581857;28;20223;-75
2022/04/19 06:00:04;;;;;;;58.30;40.63;;;;;10.40;100872.00;;;;10556917;27;20605;-76
2022/04/19 06:05:15;;;;;;;56.57;40.03;;;;;10.90;100868.00;;;;10575858;27;20557;-75
2022/04/19 06:10:17;;;;;;;56.20;38.40;;;;;11.50;100881.00;;;;10527287;28;20200;-76
2022/04/19 06:15:23;;;;;;;51.57;37.10;;;;;12.10;100872.00;;;;10507106;28;20675;-75
2022/04/19 06:20:25;;;;;;;45.90;33.97;;;;;12.70;100876.00;;;;10507111;28;20217;-76
2022/04/19 06:25:28;;;;;;;46.40;34.10;;;;;13.20;100881.00;;;;10573190;27;20195;-76
2022/04/19 06:30:31;;;;;;;43.97;33.23;;;;;13.70;100878.00;;;;10549066;27;20612;-75
2022/04/19 06:35:33;;;;;;;43.90;32.13;;;;;14.30;100886.00;;;;10506422;28;20706;-75
2022/04/19 06:40:35;;;;;;;40.50;31.33;;;;;14.70;100882.00;;;;10501487;28;20216;-76
2022/04/19 06:45:37;;;;;;;36.67;30.10;;;;;14.60;100884.00;;;;10515261;28;20188;-75
2022/04/19 06:50:58;;;;;;;39.30;29.30;;;;;14.80;100894.00;;;;10498212;27;20199;-76
2022/04/19 06:56:20;;;;;;;42.47;30.00;;;;;14.90;100887.00;;;;10589504;27;20214;-76
2022/04/19 07:01:26;;;;;;;36.73;29.20;;;;;15.40;100886.00;;;;10607625;27;20222;-76
2022/04/19 07:06:48;;;;;;;38.70;27.80;;;;;16.40;100882.00;;;;10562874;28;20239;-75
2022/04/19 07:11:51;;;;;;;25.73;20.60;;;;;17.40;100875.00;;;;10503998;28;20213;-75
2022/04/19 07:16:58;;;;;;;29.92;24.00;;;;;18.30;100884.00;;;;10524317;28;20227;-76
2022/04/19 07:27:33;;;;;;;22.90;19.55;;;;;18.40;100880.00;;;;10533611;28;20517;-76
2022/04/19 07:32:34;;;;;;;24.70;19.60;;;;;18.70;100875.00;;;;10470888;28;20620;-76
2022/04/19 07:38:15;;;;;;;22.15;19.25;;;;;19.00;100891.00;;;;10501151;28;20221;-76
2022/04/19 07:43:35;;;;;;;26.80;21.45;;;;;19.50;100895.00;;;;10542188;28;20185;-76
2022/04/19 07:48:38;;;;;;;24.33;20.45;;;;;20.10;100875.00;;;;10512684;28;20616;-76
2022/04/19 07:53:40;;;;;;;26.55;19.90;;;;;20.40;100886.00;;;;10571463;27;20215;-76
2022/04/19 07:58:47;;;;;;;22.02;17.02;;;;;20.70;100883.00;;;;10587734;27;20191;-76
2022/04/19 08:03:49;;;;;;;17.77;14.57;;;;;20.70;100885.00;;;;10570933;27;20589;-76
2022/04/19 08:08:51;;;;;;;15.32;12.68;;;;;20.90;100888.00;;;;10485241;28;20193;-77
2022/04/19 08:13:53;;;;;;;15.15;11.70;;;;;21.60;100892.00;;;;10469705;28;20224;-76
2022/04/19 08:18:55;;;;;;;12.43;9.90;;;;;21.80;100886.00;;;;10519232;28;20309;-77
2022/04/19 08:23:57;;;;;;;13.98;11.65;;;;;22.30;100883.00;;;;10559397;27;20257;-76
2022/04/19 08:29:00;;;;;;;15.40;12.18;;;;;22.20;100884.00;;;;10552430;27;20199;-76
2022/04/19 08:34:02;;;;;;;20.42;12.45;;;;;22.20;100885.00;;;;10495110;28;20905;-76
2022/04/19 08:39:04;;;;;;;15.50;10.63;;;;;22.60;100882.00;;;;10490008;28;20228;-76
2022/04/19 08:44:08;;;;;;;13.35;11.23;;;;;23.00;100884.00;;;;10582233;27;20196;-75
2022/04/19 08:49:11;;;;;;;14.35;10.45;;;;;22.80;100878.00;;;;10569269;27;20227;-75
2022/04/19 08:59:34;;;;;;;10.77;9.68;;;;;22.70;100875.00;;;;10541350;28;20198;-76
2022/04/19 09:04:35;;;;;;;13.65;9.50;;;;;23.00;100864.00;;;;10548925;27;20225;-76
2022/04/19 09:09:38;;;;;;;17.25;10.68;;;;;23.20;100856.00;;;;10529333;28;20192;-76
2022/04/19 09:15:00;;;;;;;15.18;9.73;;;;;23.70;100856.00;;;;10558950;28;20700;-76
2022/04/19 09:20:18;;;;;;;14.85;9.75;;;;;24.10;100867.00;;;;10541682;28;20668;-76
2022/04/19 09:25:24;;;;;;;13.23;10.40;;;;;23.80;100858.00;;;;10519381;28;20177;-76
2022/04/19 09:30:28;;;;;;;11.07;8.18;;;;;24.20;100852.00;;;;10517104;28;20199;-76
2022/04/19 09:35:33;;;;;;;11.63;7.57;;;;;24.40;100853.00;;;;10548260;28;20247;-76
2022/04/19 09:40:38;;;;;;;9.27;6.60;;;;;24.70;100839.00;;;;10544455;27;20299;-76
2022/04/19 09:45:58;;;;;;;7.68;6.75;;;;;24.20;100848.00;;;;10575418;27;20207;-76
2022/04/19 09:51:06;;;;;;;8.23;6.90;;;;;23.80;100847.00;;;;10584716;27;20251;-76
2022/04/19 09:56:09;;;;;;;9.48;6.90;;;;;23.80;100852.00;;;;10516322;28;20624;-75
2022/04/19 10:11:55;;;;;;;9.40;6.90;;;;;23.90;100839.00;;;;10608070;27;20248;-76
2022/04/19 10:16:58;;;;;;;8.95;7.20;;;;;24.20;100835.00;;;;10591062;27;20385;-76
2022/04/19 10:22:08;;;;;;;8.82;7.18;;;;;24.30;100845.00;;;;10595213;27;20279;-76
2022/04/19 10:27:10;;;;;;;7.82;6.85;;;;;24.60;100836.00;;;;10539050;28;20177;-76
2022/04/19 10:32:12;;;;;;;9.40;7.28;;;;;24.70;100828.00;;;;10541349;28;20235;-75
2022/04/19 10:37:15;;;;;;;8.77;7.85;;;;;24.70;100838.00;;;;10522502;28;20324;-76
2022/04/19 10:42:28;;;;;;;10.88;7.43;;;;;24.70;100836.00;;;;10590166;27;20208;-76
2022/04/19 10:47:30;;;;;;;7.53;6.72;;;;;25.10;100843.00;;;;10622951;27;20211;-75
2022/04/19 10:52:39;;;;;;;8.20;6.57;;;;;25.10;100827.00;;;;10589479;27;20215;-76
2022/04/19 10:58:09;;;;;;;8.38;6.68;;;;;25.40;100832.00;;;;10542989;28;20220;-75
2022/04/19 11:03:40;;;;;;;10.82;7.72;;;;;25.90;100836.00;;;;10547152;28;20190;-76
2022/04/19 11:08:43;;;;;;;10.15;6.45;;;;;25.80;100834.00;;;;10582609;28;20189;-75
2022/04/19 11:14:18;;;;;;;10.55;7.55;;;;;25.90;100833.00;;;;10546419;28;20219;-76
2022/04/19 11:19:23;;;;;;;10.75;7.53;;;;;26.00;100825.00;;;;10563595;28;20185;-76
2022/04/19 11:25:00;;;;;;;14.57;8.95;;;;;25.60;100827.00;;;;10564703;28;20196;-75
2022/04/19 11:30:13;;;;;;;14.13;9.48;;;;;25.60;100812.00;;;;10540535;28;20185;-76
2022/04/19 11:35:16;;;;;;;9.55;8.18;;;;;26.20;100810.00;;;;10545869;28;20220;-76
2022/04/19 11:51:08;;;;;;;10.10;7.22;;;;;26.00;100797.00;;;;10539152;28;20192;-76
2022/04/19 11:56:10;;;;;;;7.68;6.60;;;;;26.50;100796.00;;;;10565402;27;20583;-75
2022/04/19 12:01:14;;;;;;;9.40;6.30;;;;;26.40;100798.00;;;;10503451;28;20192;-75
2022/04/19 12:06:21;;;;;;;7.55;5.88;;;;;26.40;100797.00;;;;10523586;28;20180;-76
2022/04/19 12:11:23;;;;;;;6.60;5.00;;;;;26.50;100790.00;;;;10528400;28;20627;-76
2022/04/19 12:16:40;;;;;;;8.77;5.72;;;;;26.70;100781.00;;;;10528439;28;20216;-75
2022/04/19 12:21:46;;;;;;;6.72;5.03;;;;;26.80;100767.00;;;;10560968;28;20727;-77
2022/04/19 12:27:03;;;;;;;9.25;5.60;;;;;26.60;100777.00;;;;10507852;28;20193;-76
2022/04/19 12:32:06;;;;;;;6.13;5.53;;;;;26.50;100780.00;;;;10501604;28;20701;-76
2022/04/19 12:37:12;;;;;;;7.18;5.80;;;;;26.30;100774.00;;;;10485437;28;20217;-76
2022/04/19 12:42:14;;;;;;;6.53;5.85;;;;;26.00;100768.00;;;;10512982;28;20216;-76
2022/04/19 12:47:17;;;;;;;6.80;5.63;;;;;25.80;100764.00;;;;10485058;28;20246;-76
2022/04/19 12:52:19;;;;;;;8.88;6.22;;;;;25.30;100755.00;;;;10516550;27;20200;-76
2022/04/19 12:57:23;;;;;;;9.48;6.65;;;;;24.80;100758.00;;;;10541732;28;20257;-77
2022/04/19 13:02:26;;;;;;;8.43;5.90;;;;;24.90;100745.00;;;;10527505;27;20889;-76
2022/04/19 13:12:54;;;;;;;9.90;6.07;;;;;24.60;100750.00;;;;10548806;28;20191;-76
2022/04/19 13:17:56;;;;;;;8.52;5.60;;;;;24.70;100744.00;;;;10540396;28;20196;-76
2022/04/19 13:22:58;;;;;;;8.52;6.35;;;;;25.10;100728.00;;;;10542097;28;20263;-76
2022/04/19 13:28:00;;;;;;;9.52;6.28;;;;;25.40;100733.00;;;;10487990;28;20196;-76
2022/04/19 13:33:02;;;;;;;9.50;6.50;;;;;26.30;100728.00;;;;10505732;28;20193;-75
2022/04/19 13:43:24;;;;;;;8.95;6.20;;;;;29.10;100711.00;;;;10500524;28;20530;-76
2022/04/19 13:48:28;;;;;;;11.35;6.82;;;;;29.60;100717.00;;;;10517582;28;20567;-76
2022/04/19 13:53:32;;;;;;;9.25;6.50;;;;;29.80;100708.00;;;;10516079;28;20247;-76
2022/04/19 13:58:34;;;;;;;7.65;6.05;;;;;31.40;100696.00;;;;10504194;28;20257;-76
2022/04/19 14:03:36;;;;;;;9.00;6.45;;;;;32.90;100698.00;;;;10518192;28;20279;-75
2022/04/19 14:08:38;;;;;;;8.77;6.22;;;;;33.00;100701.00;;;;10502783;28;20241;-76
2022/04/19 14:13:40;;;;;;;6.90;6.20;;;;;33.60;100705.00;;;;10543506;28;20209;-76
2022/04/19 14:18:42;;;;;;;8.27;6.90;;;;;33.60;100697.00;;;;10553558;27;20790;-76
2022/04/19 14:23:44;;;;;;;7.68;6.13;;;;;33.90;100693.00;;;;10572617;27;20187;-77
2022/04/19 14:34:07;;;;;;;10.18;6.30;;;;;34.90;100699.00;;;;10523028;28;20204;-76
2022/04/19 14:39:10;;;;;;;7.38;5.53;;;;;35.30;100693.00;;;;10529919;27;20234;-77
2022/04/19 14:44:11;;;;;;;8.43;6.47;;;;;35.80;100689.00;;;;10530828;28;20230;-76
2022/04/19 14:49:13;;;;;;;9.38;7.13;;;;;36.00;100689.00;;;;10520348;28;20225;-76
2022/04/19 14:54:16;;;;;;;8.85;6.18;;;;;35.60;100681.00;;;;10559766;27;20219;-76
2022/04/19 14:59:18;;;;;;;10.90;5.78;;;;;35.60;100690.00;;;;10521075;28;20227;-77
2022/04/19 15:04:20;;;;;;;7.20;5.75;;;;;35.10;100679.00;;;;10506844;28;20542;-77
2022/04/19 15:09:22;;;;;;;8.90;6.18;;;;;31.00;100698.00;;;;10543943;28;20669;-76
2022/04/19 15:14:26;;;;;;;7.18;6.05;;;;;28.20;100695.00;;;;10565693;27;20208;-76
2022/04/19 15:19:28;;;;;;;7.68;6.50;;;;;27.20;100683.00;;;;10546441;28;20192;-76
2022/04/19 15:24:33;;;;;;;8.35;5.82;;;;;26.30;100693.00;;;;10563087;28;20199;-77
2022/04/19 15:29:35;;;;;;;10.05;6.15;;;;;25.60;100691.00;;;;10527761;28;20279;-77
2022/04/19 15:34:37;;;;;;;8.30;6.05;;;;;25.10;100686.00;;;;10539110;28;20204;-77
2022/04/19 15:39:39;;;;;;;7.20;4.97;;;;;24.80;100686.00;;;;10498901;28;20584;-77
2022/04/19 15:44:41;;;;;;;7.15;5.90;;;;;24.50;100687.00;;;;10496387;28;20188;-76
2022/04/19 15:49:45;;;;;;;10.15;6.72;;;;;24.10;100687.00;;;;10510473;28;20283;-76
2022/04/19 15:54:47;;;;;;;8.95;6.55;;;;;23.70;100689.00;;;;10494493;28;20203;-77
2022/04/19 15:59:49;;;;;;;10.88;7.35;;;;;23.40;100681.00;;;;10499787;28;20184;-77
2022/04/19 16:04:51;;;;;;;13.15;7.60;;;;;23.30;100680.00;;;;10505203;28;20195;-76
2022/04/19 16:09:53;;;;;;;10.85;7.32;;;;;23.10;100687.00;;;;10535397;28;20196;-77
2022/04/19 16:14:55;;;;;;;11.93;7.85;;;;;22.80;100681.00;;;;10505179;28;20324;-77
2022/04/19 16:25:18;;;;;;;10.80;7.97;;;;;22.60;100687.00;;;;10499699;28;20185;-76
2022/04/19 16:30:20;;;;;;;11.23;7.30;;;;;22.50;100687.00;;;;10557916;27;20201;-77
2022/04/19 16:35:22;;;;;;;11.05;6.25;;;;;22.40;100676.00;;;;10547289;27;20208;-76
2022/04/19 16:40:24;;;;;;;8.57;6.30;;;;;22.10;100697.00;;;;10553026;27;20222;-77
2022/04/19 16:45:26;;;;;;;12.40;7.30;;;;;22.00;100685.00;;;;10541929;27;20315;-77
2022/04/19 16:50:29;;;;;;;10.65;6.13;;;;;21.80;100670.00;;;;10521931;28;20542;-79
2022/04/19 16:55:31;;;;;;;8.93;6.32;;;;;21.80;100678.00;;;;10528149;28;20212;-76
2022/04/19 17:00:34;;;;;;;8.70;5.82;;;;;21.80;100683.00;;;;10540183;28;20196;-76
2022/04/19 17:05:36;;;;;;;8.43;5.93;;;;;21.70;100682.00;;;;10541939;28;20246;-77
2022/04/19 17:10:38;;;;;;;9.88;4.68;;;;;21.50;100681.00;;;;10512155;28;20199;-77
2022/04/19 17:15:40;;;;;;;10.13;5.20;;;;;21.30;100678.00;;;;10516082;28;20204;-77
2022/04/19 17:20:42;;;;;;;9.73;5.65;;;;;21.10;100676.00;;;;10535395;28;20279;-77
2022/04/19 17:25:45;;;;;;;8.70;5.68;;;;;20.70;100689.00;;;;10530717;28;20184;-77
2022/04/19 17:30:48;;;;;;;7.18;5.28;;;;;20.50;100685.00;;;;10514251;28;20551;-77
2022/04/19 17:35:51;;;;;;;9.98;5.45;;;;;20.20;100686.00;;;;10497672;28;20223;-77
2022/04/19 17:40:54;;;;;;;8.48;5.30;;;;;19.90;100683.00;;;;10508978;28;20213;-77
2022/04/19 17:45:57;;;;;;;8.90;5.15;;;;;19.70;100686.00;;;;10505429;28;20663;-77
2022/04/19 17:56:32;;;;;;;10.55;5.68;;;;;19.20;100707.00;;;;10501304;28;20274;-77
2022/04/19 18:01:42;;;;;;;13.32;6.00;;;;;18.90;100712.00;;;;10537906;28;20247;-77
2022/04/19 18:06:45;;;;;;;10.77;5.97;;;;;18.60;100715.00;;;;10523018;28;20643;-77
2022/04/19 18:11:47;;;;;;;12.18;5.45;;;;;18.40;100732.00;;;;10552022;28;20196;-77
2022/04/19 18:16:49;;;;;;;12.10;6.20;;;;;18.10;100742.00;;;;10537957;28;20211;-77
2022/04/19 18:27:11;;;;;;;7.88;5.88;;;;;17.60;100741.00;;;;10535605;27;20250;-77
2022/04/19 18:32:14;;;;;;;11.48;5.80;;;;;17.40;100746.00;;;;10535851;28;20192;-77
2022/04/19 18:37:16;;;;;;;8.33;5.53;;;;;17.20;100756.00;;;;10507174;28;20208;-76
2022/04/19 18:42:19;;;;;;;6.90;5.33;;;;;17.00;100762.00;;;;10513906;27;20249;-78
2022/04/19 18:47:21;;;;;;;9.50;5.40;;;;;16.90;100761.00;;;;10517279;28;20204;-76
2022/04/19 18:52:26;;;;;;;11.83;5.63;;;;;16.70;100768.00;;;;10555317;27;20196;-77
2022/04/19 18:57:28;;;;;;;9.80;5.73;;;;;16.60;100774.00;;;;10496148;28;20663;-77
2022/04/19 19:02:30;;;;;;;9.17;5.30;;;;;16.40;100788.00;;;;10542857;28;20574;-77
2022/04/19 19:07:32;;;;;;;6.77;5.47;;;;;16.20;100793.00;;;;10565571;27;20615;-77
2022/04/19 19:12:35;;;;;;;8.17;4.73;;;;;16.10;100807.00;;;;10516691;28;20193;-76
2022/04/19 19:17:37;;;;;;;6.10;5.40;;;;;15.90;100807.00;;;;10535459;27;20236;-77
2022/04/19 19:22:39;;;;;;;7.47;4.93;;;;;15.80;100817.00;;;;10524679;27;20191;-77
2022/04/19 19:27:41;;;;;;;10.03;5.30;;;;;15.70;100824.00;;;;10544200;27;20196;-77
2022/04/19 19:32:43;;;;;;;11.03;4.93;;;;;15.70;100830.00;;;;10547149;27;20220;-76
2022/04/19 19:37:49;;;;;;;7.77;5.23;;;;;15.60;100833.00;;;;10568968;27;20207;-77
2022/04/19 19:42:51;;;;;;;8.73;5.00;;;;;15.50;100837.00;;;;10550181;27;20219;-76
2022/04/19 19:47:53;;;;;;;10.10;5.10;;;;;15.40;100848.00;;;;10555051;27;20197;-77
2022/04/19 19:52:55;;;;;;;7.33;5.13;;;;;15.30;100854.00;;;;10545708;27;20661;-77
2022/04/19 19:57:57;;;;;;;7.57;5.07;;;;;15.20;100857.00;;;;10561492;27;20253;-76
2022/04/19 20:02:58;;;;;;;7.60;5.33;;;;;15.10;100865.00;;;;10574451;27;20276;-77
2022/04/19 20:08:02;;;;;;;9.13;5.73;;;;;15.00;100865.00;;;;10544909;28;20220;-76
2022/04/19 20:13:04;;;;;;;13.60;5.77;;;;;14.90;100861.00;;;;10513187;28;20192;-77
2022/04/19 20:18:06;;;;;;;9.00;5.90;;;;;14.80;100861.00;;;;10527825;27;20196;-77
2022/04/19 20:23:08;;;;;;;8.57;5.50;;;;;14.70;100859.00;;;;10531662;27;20297;-77
2022/04/19 20:28:12;;;;;;;7.33;5.67;;;;;14.60;100859.00;;;;10540526;28;20585;-77
2022/04/19 20:33:14;;;;;;;8.17;5.43;;;;;14.50;100866.00;;;;10535692;28;20188;-77
2022/04/19 20:38:16;;;;;;;8.03;5.40;;;;;14.50;100870.00;;;;10535815;28;20232;-76
2022/04/19 20:43:18;;;;;;;8.73;5.67;;;;;14.40;100882.00;;;;10507335;28;20736;-76
2022/04/19 20:53:40;;;;;;;6.77;5.60;;;;;14.30;100882.00;;;;10560671;27;20208;-76
2022/04/19 20:58:42;;;;;;;12.20;5.63;;;;;14.20;100877.00;;;;10542076;28;20208;-76
2022/04/19 21:03:44;;;;;;;7.47;5.40;;;;;14.10;100884.00;;;;10535426;28;20662;-77
2022/04/19 21:08:46;;;;;;;6.50;4.77;;;;;14.00;100871.00;;;;10542311;28;20242;-77
2022/04/19 21:13:48;;;;;;;8.37;4.80;;;;;13.90;100881.00;;;;10525777;28;20206;-76
2022/04/19 21:18:49;;;;;;;7.30;4.70;;;;;13.80;100883.00;;;;10525491;28;20211;-77
2022/04/19 21:23:51;;;;;;;6.73;4.60;;;;;13.70;100883.00;;;;10517798;28;20253;-77
2022/04/19 21:28:53;;;;;;;6.50;4.13;;;;;13.70;100888.00;;;;10526116;28;20265;-76
2022/04/19 21:33:55;;;;;;;5.37;3.47;;;;;13.60;100880.00;;;;10550148;28;20238;-77
2022/04/19 21:38:58;;;;;;;4.67;3.67;;;;;13.60;100887.00;;;;10549826;28;20219;-77
2022/04/19 21:44:00;;;;;;;7.07;3.50;;;;;13.50;100880.00;;;;10510430;28;20205;-77
2022/04/19 21:49:02;;;;;;;5.60;3.23;;;;;13.40;100884.00;;;;10508117;28;20266;-77
2022/04/19 21:54:05;;;;;;;5.30;3.63;;;;;13.40;100877.00;;;;10511599;28;20578;-77
2022/04/19 21:59:07;;;;;;;4.90;3.43;;;;;13.30;100886.00;;;;10489996;28;20219;-76
2022/04/19 22:04:09;;;;;;;3.27;2.93;;;;;13.20;100891.00;;;;10509276;28;20193;-76
2022/04/19 22:09:11;;;;;;;7.00;3.43;;;;;13.10;100896.00;;;;10507210;28;20200;-76
2022/04/19 22:14:13;;;;;;;4.40;3.50;;;;;13.00;100902.00;;;;10473282;28;20189;-77
2022/04/19 22:19:15;;;;;;;4.87;3.03;;;;;12.90;100885.00;;;;10499470;28;20262;-76
2022/04/19 22:24:17;;;;;;;4.93;3.33;;;;;12.80;100892.00;;;;10569497;27;20658;-76
2022/04/19 22:29:18;;;;;;;3.77;3.37;;;;;12.70;100889.00;;;;10556501;27;20252;-76
2022/04/19 22:34:20;;;;;;;4.27;2.77;;;;;12.70;100889.00;;;;10589756;27;20650;-77
2022/04/19 22:39:22;;;;;;;4.60;3.50;;;;;12.50;100889.00;;;;10551415;28;20221;-77
2022/04/19 22:44:25;;;;;;;7.27;3.30;;;;;12.50;100882.00;;;;10563813;28;20188;-77
2022/04/19 22:49:27;;;;;;;5.37;3.80;;;;;12.30;100888.00;;;;10530400;28;20793;-77
2022/04/19 22:54:29;;;;;;;3.10;2.80;;;;;12.20;100881.00;;;;10546676;27;20692;-76
2022/04/19 22:59:31;;;;;;;4.03;3.57;;;;;12.00;100881.00;;;;10589241;27;20215;-76
2022/04/19 23:04:33;;;;;;;4.43;3.33;;;;;11.90;100885.00;;;;10551581;28;20192;-77
2022/04/19 23:09:35;;;;;;;6.37;3.30;;;;;11.80;100895.00;;;;10536993;28;20578;-76
2022/04/19 23:14:37;;;;;;;5.23;3.63;;;;;11.70;100885.00;;;;10497831;28;20242;-76
2022/04/19 23:19:39;;;;;;;4.70;3.10;;;;;11.60;100882.00;;;;10528819;28;20263;-77
2022/04/19 23:24:41;;;;;;;8.30;3.87;;;;;11.60;100882.00;;;;10581714;27;20739;-77
2022/04/19 23:29:43;;;;;;;5.50;3.53;;;;;11.60;100878.00;;;;10571582;27;20218;-77
2022/04/19 23:34:45;;;;;;;3.57;3.00;;;;;11.50;100878.00;;;;10530468;28;20674;-77
2022/04/19 23:39:47;;;;;;;3.90;3.30;;;;;11.40;100866.00;;;;10515281;27;20245;-76
2022/04/19 23:44:49;;;;;;;4.37;3.27;;;;;11.30;100870.00;;;;10526631;28;20238;-77
2022/04/19 23:49:51;;;;;;;3.77;3.47;;;;;11.20;100871.00;;;;10539099;28;20286;-77
2022/04/19 23:54:53;;;;;;;5.70;3.80;;;;;11.00;100870.00;;;;10581500;27;20191;-76
2022/04/19 23:59:55;;;;;;;4.27;3.00;;;;;10.90;100863.00;;;;10570726;27;20203;-76
